Time;durP1;ratioP1;P1;durP2;ratioP2;P2;SDS_P1;SDS_P2;PMS_P1;PMS_P2;Temp;Humidity;BMP_temperature;BMP_pressure;BME280_temperature;BME280_humidity;BME280_pressure;Samples;Min_cycle;Max_cycle;Signal;HPM_P1;HPM_P2
2023/06/12 00:01:43;;;;;;;7.07;5.87;;;19.50;58.20;;;19.49;44.59;101107.38;5055362;28;20285;-75
2023/06/12 00:04:17;;;;;;;6.87;6.17;;;19.40;58.50;;;19.37;45.36;101106.31;5055265;28;20329;-75
2023/06/12 00:06:50;;;;;;;7.23;5.57;;;19.30;58.90;;;19.35;45.59;101103.78;5055352;28;20220;-75
2023/06/12 00:09:24;;;;;;;9.17;6.37;;;19.20;59.80;;;19.33;45.69;101099.63;5055222;28;20237;-75
2023/06/12 00:11:57;;;;;;;6.73;6.13;;;19.30;60.00;;;19.21;46.27;101102.16;5055695;28;20186;-75
2023/06/12 00:14:30;;;;;;;7.73;6.33;;;19.20;60.40;;;19.19;46.50;101109.63;5054768;28;20222;-75
2023/06/12 00:17:05;;;;;;;7.80;6.50;;;19.20;60.60;;;19.10;46.76;101100.88;5055553;28;20201;-75
2023/06/12 00:19:38;;;;;;;8.33;6.50;;;19.10;61.00;;;19.11;46.84;101107.94;5055195;28;20221;-75
2023/06/12 00:22:11;;;;;;;8.50;6.40;;;19.10;61.40;;;19.07;47.09;101111.31;5055269;28;20194;-75
2023/06/12 00:24:45;;;;;;;7.33;6.63;;;19.00;61.80;;;19.04;47.44;101106.31;5055611;28;20222;-75
2023/06/12 00:27:18;;;;;;;7.63;6.93;;;19.00;62.10;;;18.97;47.80;101113.59;5054816;28;20216;-75
2023/06/12 00:29:51;;;;;;;11.93;6.80;;;19.00;62.70;;;19.04;48.19;101112.53;5055007;28;20244;-75
2023/06/12 00:32:25;;;;;;;8.80;7.07;;;19.10;63.00;;;18.99;48.39;101114.22;5054839;28;20268;-75
2023/06/12 00:34:59;;;;;;;10.30;7.57;;;19.00;63.50;;;18.95;48.79;101113.78;5054823;28;20209;-75
2023/06/12 00:37:33;;;;;;;8.90;7.23;;;18.90;64.10;;;18.90;49.43;101112.75;5054472;28;20617;-75
2023/06/12 00:40:07;;;;;;;11.27;7.50;;;18.90;64.60;;;18.92;49.45;101116.06;5054727;28;20205;-75
2023/06/12 00:42:47;;;;;;;7.83;6.83;;;18.90;64.90;;;18.93;49.97;101117.75;5054292;28;20308;-75
2023/06/12 00:45:22;;;;;;;9.73;7.60;;;19.00;65.40;;;18.97;49.87;101119.81;5054422;28;20634;-75
2023/06/12 00:48:00;;;;;;;10.10;7.47;;;19.00;65.40;;;18.94;49.86;101114.00;5054272;28;20300;-75
2023/06/12 00:50:35;;;;;;;8.63;7.67;;;19.00;66.40;;;18.97;49.89;101106.25;5054192;28;20190;-75
2023/06/12 00:53:09;;;;;;;12.37;7.90;;;19.00;66.90;;;18.91;50.67;101114.38;5053647;28;20661;-75
2023/06/12 00:55:42;;;;;;;8.80;7.50;;;18.90;66.40;;;18.83;50.95;101117.31;5054209;28;20281;-75
2023/06/12 00:58:15;;;;;;;8.73;7.60;;;18.90;66.50;;;18.82;51.03;101107.50;5053919;28;20285;-75
2023/06/12 01:00:49;;;;;;;8.80;7.90;;;18.70;67.00;;;18.80;51.01;101113.16;5053585;28;20196;-75
2023/06/12 01:03:24;;;;;;;8.80;8.00;;;18.80;67.30;;;18.70;51.90;101105.38;5053767;28;20280;-75
2023/06/12 01:06:01;;;;;;;8.67;7.80;;;18.70;67.90;;;18.66;51.52;101108.72;5053770;28;20205;-75
2023/06/12 01:08:47;;;;;;;9.17;8.37;;;18.60;67.80;;;18.65;52.08;101110.59;5053957;28;20640;-75
2023/06/12 01:11:25;;;;;;;10.30;8.40;;;18.70;68.40;;;18.53;52.30;101109.47;5053732;28;20194;-75
2023/06/12 01:14:01;;;;;;;10.17;8.03;;;18.50;68.40;;;18.54;52.32;101107.63;5053554;28;20225;-75
2023/06/12 01:16:34;;;;;;;9.90;8.20;;;18.60;68.90;;;18.41;52.75;101107.53;5053281;28;20639;-75
2023/06/12 01:19:09;;;;;;;9.33;8.50;;;18.40;69.40;;;18.32;52.86;101104.19;5053535;28;20197;-75
2023/06/12 01:21:50;;;;;;;9.47;8.50;;;18.30;69.50;;;18.31;52.88;101104.38;5054263;28;20291;-75
2023/06/12 01:24:53;;;;;;;9.37;7.90;;;18.30;70.10;;;18.39;52.62;101113.16;5053401;28;20228;-75
2023/06/12 01:28:07;;;;;;;9.30;7.93;;;18.40;69.80;;;18.24;53.33;101115.19;5053031;28;20686;-75
2023/06/12 01:30:59;;;;;;;10.20;8.00;;;18.30;70.60;;;18.19;53.19;101112.22;5053043;28;20571;-75
2023/06/12 01:33:41;;;;;;;13.23;8.60;;;18.20;70.70;;;18.13;54.11;101113.03;5053230;28;20683;-75
2023/06/12 01:36:24;;;;;;;9.40;8.40;;;18.10;71.10;;;18.08;54.38;101108.19;5053828;28;20225;-75
2023/06/12 01:39:04;;;;;;;9.37;8.57;;;18.10;71.60;;;18.03;54.12;101110.69;5053262;28;20293;-75
2023/06/12 01:41:39;;;;;;;8.87;7.90;;;18.10;71.80;;;18.06;54.03;101112.16;5053446;28;20221;-75
2023/06/12 01:44:16;;;;;;;9.67;8.67;;;18.10;71.70;;;18.02;54.44;101127.13;5052648;28;20600;-75
2023/06/12 01:46:50;;;;;;;9.73;8.83;;;18.10;71.70;;;17.98;54.30;101117.75;5053107;28;20210;-75
2023/06/12 01:49:23;;;;;;;12.00;9.13;;;18.00;72.10;;;17.96;54.47;101122.53;5053154;28;20194;-75
2023/06/12 01:51:56;;;;;;;9.83;8.70;;;18.00;72.10;;;17.95;54.05;101120.84;5053141;28;20190;-75
2023/06/12 01:54:33;;;;;;;9.70;8.67;;;18.10;72.40;;;17.92;55.07;101113.09;5052965;28;20190;-75
2023/06/12 01:57:08;;;;;;;11.73;8.93;;;18.00;72.80;;;17.88;54.39;101126.22;5052808;28;20190;-75
2023/06/12 01:59:41;;;;;;;9.50;8.60;;;17.90;72.90;;;17.85;54.98;101120.34;5053099;28;20220;-75
2023/06/12 02:02:15;;;;;;;11.27;8.97;;;17.90;73.10;;;17.83;55.59;101112.44;5052646;28;20187;-75
2023/06/12 02:04:49;;;;;;;10.17;9.07;;;17.90;73.50;;;17.80;55.51;101125.53;5053030;28;20198;-75
2023/06/12 02:07:22;;;;;;;10.53;8.93;;;17.80;73.60;;;17.81;55.10;101124.53;5052927;28;20331;-75
2023/06/12 02:09:56;;;;;;;10.00;9.00;;;17.90;73.70;;;17.77;55.20;101117.81;5052640;28;20653;-75
2023/06/12 02:12:30;;;;;;;9.83;8.87;;;17.80;73.60;;;17.76;55.89;101110.72;5052811;28;20253;-75
2023/06/12 02:15:04;;;;;;;10.97;9.30;;;17.80;74.40;;;17.70;55.68;101117.78;5052889;28;20354;-75
2023/06/12 02:17:38;;;;;;;10.67;9.43;;;17.80;74.70;;;17.67;56.47;101123.59;5052803;28;20182;-75
2023/06/12 02:20:14;;;;;;;12.77;9.33;;;17.70;74.80;;;17.61;56.45;101117.06;5052825;28;20228;-75
2023/06/12 02:22:48;;;;;;;10.93;9.73;;;17.70;75.20;;;17.57;56.13;101123.91;5052711;28;20313;-75
2023/06/12 02:25:21;;;;;;;10.60;9.10;;;17.70;75.00;;;17.53;56.08;101122.63;5053462;28;20190;-75
2023/06/12 02:27:55;;;;;;;11.70;9.57;;;17.60;75.30;;;17.53;55.81;101133.44;5052399;28;20679;-76
2023/06/12 02:30:28;;;;;;;10.83;9.73;;;17.60;75.30;;;17.49;56.08;101123.19;5052675;28;20202;-76
2023/06/12 02:33:02;;;;;;;10.73;9.70;;;17.60;75.40;;;17.48;56.58;101132.34;5052653;28;20257;-75
2023/06/12 02:35:35;;;;;;;10.77;9.67;;;17.60;75.60;;;17.56;56.68;101127.66;5052698;28;20259;-75
2023/06/12 02:38:09;;;;;;;10.07;9.07;;;17.70;75.70;;;17.47;56.30;101122.53;5052356;28;20191;-75
2023/06/12 02:40:42;;;;;;;10.67;9.50;;;17.60;75.90;;;17.39;56.59;101120.84;5052836;28;20285;-75
2023/06/12 02:43:15;;;;;;;11.40;10.23;;;17.50;76.50;;;17.39;56.32;101126.25;5052566;28;20313;-75
2023/06/12 02:45:49;;;;;;;10.13;9.07;;;17.50;76.70;;;17.29;57.39;101120.34;5052534;28;20245;-75
2023/06/12 02:48:22;;;;;;;12.83;9.23;;;17.40;77.20;;;17.24;56.90;101122.78;5052197;28;20280;-75
2023/06/12 02:50:55;;;;;;;12.23;9.93;;;17.30;77.60;;;17.21;57.36;101123.16;5052266;28;20644;-75
2023/06/12 02:53:28;;;;;;;10.90;9.77;;;17.30;78.00;;;17.20;57.37;101132.31;5052409;28;20248;-75
2023/06/12 02:56:02;;;;;;;11.40;9.87;;;17.30;78.30;;;17.18;57.24;101128.97;5052562;28;20236;-75
2023/06/12 02:58:35;;;;;;;10.37;9.37;;;17.30;78.70;;;17.09;58.55;101132.81;5052472;28;20187;-76
2023/06/12 03:01:10;;;;;;;10.97;9.70;;;17.20;79.20;;;17.06;58.57;101134.03;5052190;28;20615;-76
2023/06/12 03:03:44;;;;;;;10.63;9.53;;;17.20;79.20;;;17.01;58.96;101138.38;5052385;28;20230;-76
2023/06/12 03:06:18;;;;;;;11.07;9.93;;;17.10;80.10;;;16.95;59.57;101144.56;5052932;28;20198;-76
2023/06/12 03:08:52;;;;;;;11.07;9.97;;;17.00;80.50;;;16.93;59.38;101152.00;5055607;28;20206;-76
2023/06/12 03:11:25;;;;;;;11.43;10.40;;;17.00;80.90;;;16.93;59.16;101138.47;5056010;28;20190;-76
2023/06/12 03:13:58;;;;;;;11.30;9.77;;;17.00;81.60;;;16.87;59.50;101150.91;5055916;28;20229;-75
2023/06/12 03:16:32;;;;;;;11.33;10.17;;;17.00;81.30;;;16.85;59.85;101150.25;5055869;28;20186;-75
2023/06/12 03:19:06;;;;;;;12.77;9.97;;;16.90;81.90;;;16.85;59.73;101152.13;5055613;28;20659;-75
2023/06/12 03:21:39;;;;;;;11.30;10.13;;;16.90;82.40;;;16.87;59.37;101152.78;5055788;28;20204;-75
2023/06/12 03:24:14;;;;;;;11.10;10.07;;;17.00;82.50;;;16.81;59.62;101153.53;5055678;28;20226;-75
2023/06/12 03:26:48;;;;;;;10.90;9.90;;;16.90;82.80;;;16.77;60.25;101154.94;5055375;28;20186;-75
2023/06/12 03:29:22;;;;;;;11.77;10.67;;;16.90;83.10;;;16.80;60.58;101154.56;5056427;28;20216;-75
2023/06/12 03:31:55;;;;;;;10.87;9.77;;;16.90;83.30;;;16.78;59.50;101153.94;5055978;28;20244;-75
2023/06/12 03:34:31;;;;;;;11.60;9.80;;;16.90;83.40;;;16.71;60.51;101162.78;5055592;28;20282;-75
2023/06/12 03:37:04;;;;;;;11.33;10.23;;;16.80;83.70;;;16.68;60.97;101157.75;5055609;28;20213;-76
2023/06/12 03:39:38;;;;;;;11.73;10.23;;;16.80;84.50;;;16.72;60.75;101161.75;5055456;28;20183;-76
2023/06/12 03:42:12;;;;;;;11.30;9.97;;;16.80;84.40;;;16.74;61.20;101156.19;5054998;28;20212;-76
2023/06/12 03:44:45;;;;;;;11.50;10.27;;;16.90;84.50;;;16.72;61.14;101159.06;5055143;28;20312;-76
2023/06/12 03:47:19;;;;;;;15.30;10.23;;;16.80;85.00;;;16.73;60.82;101158.03;5055298;28;20194;-75
2023/06/12 03:49:52;;;;;;;12.50;9.97;;;16.90;85.30;;;16.69;61.66;101164.84;5054869;28;20675;-75
2023/06/12 03:52:27;;;;;;;11.77;10.67;;;16.80;85.80;;;16.67;61.23;101160.66;5054849;28;20226;-75
2023/06/12 03:55:00;;;;;;;11.03;9.90;;;16.80;86.00;;;16.63;62.02;101165.63;5054881;28;20647;-75
2023/06/12 03:57:34;;;;;;;11.10;10.00;;;16.80;86.30;;;16.60;61.20;101162.44;5054847;28;20277;-75
2023/06/12 04:00:11;;;;;;;11.40;10.13;;;16.70;86.30;;;16.59;60.96;101172.41;5055102;28;20190;-75
2023/06/12 04:02:45;;;;;;;12.07;10.77;;;16.70;86.50;;;16.54;62.01;101161.28;5054959;28;20225;-75
2023/06/12 04:05:22;;;;;;;11.57;10.33;;;16.70;87.90;;;16.50;62.16;101168.13;5055025;28;20190;-75
2023/06/12 04:07:55;;;;;;;11.70;10.60;;;16.70;88.00;;;16.52;62.04;101171.47;5054609;28;20194;-75
2023/06/12 04:10:28;;;;;;;10.93;9.83;;;16.60;88.10;;;16.51;62.40;101158.13;5054920;28;20252;-75
2023/06/12 04:13:02;;;;;;;12.37;10.83;;;16.70;89.00;;;16.48;62.08;101164.75;5054683;28;20226;-75
2023/06/12 04:15:36;;;;;;;12.17;10.87;;;16.60;88.50;;;16.51;61.80;101164.38;5054500;28;20636;-75
2023/06/12 04:18:10;;;;;;;12.47;11.30;;;16.70;88.70;;;16.47;62.27;101170.38;5053853;28;20292;-75
2023/06/12 04:20:43;;;;;;;12.10;10.90;;;16.60;89.10;;;16.46;62.73;101180.31;5054751;28;20225;-75
2023/06/12 04:23:17;;;;;;;12.87;10.40;;;16.60;89.30;;;16.46;63.50;101174.94;5054337;28;20785;-75
2023/06/12 04:25:50;;;;;;;12.77;10.97;;;16.60;89.80;;;16.46;63.21;101180.31;5054655;28;20186;-75
2023/06/12 04:28:24;;;;;;;11.93;10.53;;;16.70;90.00;;;16.48;63.09;101180.97;5054570;28;20305;-75
2023/06/12 04:30:57;;;;;;;11.90;10.63;;;16.80;90.60;;;16.50;63.05;101187.03;5054581;28;20273;-75
2023/06/12 04:33:32;;;;;;;12.47;11.00;;;16.70;90.30;;;16.56;62.50;101188.16;5054445;28;20276;-75
2023/06/12 04:36:13;;;;;;;12.63;10.23;;;16.70;90.10;;;16.57;62.58;101185.28;5054711;28;20193;-75
2023/06/12 04:38:50;;;;;;;12.03;10.83;;;16.80;90.00;;;16.64;63.08;101185.38;5054419;28;20198;-75
2023/06/12 04:41:27;;;;;;;10.80;9.73;;;16.90;90.20;;;16.67;63.50;101185.84;5054339;28;20229;-75
2023/06/12 04:44:03;;;;;;;12.33;11.00;;;16.90;90.40;;;16.74;63.46;101180.50;5053888;28;20654;-65
2023/06/12 04:46:36;;;;;;;11.53;10.43;;;17.00;90.20;;;16.78;62.92;101175.56;5054234;28;20237;-72
2023/06/12 04:49:10;;;;;;;15.77;10.90;;;17.00;90.00;;;16.79;63.45;101182.63;5053828;28;20206;-73
2023/06/12 04:51:43;;;;;;;11.57;10.40;;;17.00;90.40;;;16.80;63.46;101181.59;5053885;28;20656;-73
2023/06/12 04:54:18;;;;;;;11.83;10.13;;;17.10;90.50;;;16.81;63.94;101180.59;5053748;28;20261;-73
2023/06/12 04:56:52;;;;;;;12.20;10.77;;;17.10;90.70;;;16.83;63.17;101182.06;5053733;28;20189;-73
2023/06/12 04:59:26;;;;;;;11.83;10.50;;;17.10;90.30;;;16.83;63.21;101183.94;5054016;28;20191;-73
2023/06/12 05:02:02;;;;;;;11.47;9.93;;;17.10;90.30;;;16.87;62.74;101182.53;5054033;28;20527;-73
2023/06/12 05:04:36;;;;;;;11.77;10.43;;;17.20;90.00;;;16.89;62.06;101183.16;5053933;28;20625;-73
2023/06/12 05:07:16;;;;;;;11.87;10.63;;;17.20;90.00;;;16.92;62.26;101182.81;5053569;28;20538;-73
2023/06/12 05:09:50;;;;;;;11.67;10.47;;;17.30;90.10;;;16.99;62.79;101189.09;5053784;28;20410;-73
2023/06/12 05:12:23;;;;;;;12.33;10.03;;;17.30;89.80;;;17.04;62.02;101183.97;5053690;28;20316;-73
2023/06/12 05:14:59;;;;;;;13.33;10.60;;;17.40;89.90;;;17.11;61.84;101193.00;5053768;28;20273;-73
2023/06/12 05:17:33;;;;;;;10.60;9.50;;;17.50;89.90;;;17.16;62.01;101191.38;5053913;28;20198;-73
2023/06/12 05:20:09;;;;;;;10.23;9.20;;;17.50;89.80;;;17.22;61.81;101189.78;5054406;28;20205;-73
2023/06/12 05:22:43;;;;;;;10.23;9.23;;;17.60;90.00;;;17.24;60.78;101188.56;5053234;28;20637;-73
2023/06/12 05:25:17;;;;;;;12.93;9.37;;;17.60;89.10;;;17.31;61.27;101204.00;5053605;28;20280;-73
2023/06/12 05:27:50;;;;;;;10.80;9.27;;;17.70;88.00;;;17.33;61.17;101202.78;5054371;28;20190;-73
2023/06/12 05:30:23;;;;;;;11.43;9.03;;;17.70;89.00;;;17.35;60.41;101195.31;5053340;28;20214;-73
2023/06/12 05:32:57;;;;;;;11.27;9.30;;;17.80;88.00;;;17.39;60.86;101202.03;5053355;28;20232;-73
2023/06/12 05:35:31;;;;;;;10.90;9.43;;;17.80;89.20;;;17.41;60.51;101199.97;5053384;28;20190;-73
2023/06/12 05:38:04;;;;;;;11.03;9.23;;;17.80;88.70;;;17.48;60.25;101200.88;5053334;28;20217;-73
2023/06/12 05:40:38;;;;;;;10.27;9.03;;;17.90;88.50;;;17.54;60.23;101197.38;5054098;28;20277;-73
2023/06/12 05:43:11;;;;;;;11.67;9.30;;;18.00;87.50;;;17.61;59.68;101203.72;5052938;28;20520;-73
2023/06/12 05:45:44;;;;;;;9.87;8.90;;;18.10;88.30;;;17.67;59.54;101200.22;5052814;28;20252;-74
2023/06/12 05:48:19;;;;;;;10.43;8.90;;;18.10;87.70;;;17.79;60.11;101192.41;5052830;28;20557;-73
2023/06/12 05:50:53;;;;;;;10.07;8.80;;;18.20;87.30;;;17.84;59.28;101199.97;5053154;28;20223;-73
2023/06/12 05:53:26;;;;;;;12.57;9.03;;;18.30;86.90;;;17.90;59.28;101199.16;5052830;28;20230;-73
2023/06/12 05:56:00;;;;;;;10.13;8.97;;;18.30;86.00;;;17.92;58.57;101197.94;5052841;28;20190;-73
2023/06/12 05:58:36;;;;;;;10.57;8.87;;;18.40;86.00;;;17.98;59.85;101199.03;5053152;28;20289;-73
2023/06/12 06:01:11;;;;;;;10.47;9.33;;;18.40;87.40;;;18.03;59.57;101207.38;5053092;28;20190;-73
2023/06/12 06:03:45;;;;;;;10.00;9.00;;;18.50;87.70;;;18.06;59.98;101205.13;5053005;28;20229;-73
2023/06/12 06:06:20;;;;;;;10.90;8.23;;;18.60;87.50;;;18.12;58.60;101212.44;5053017;28;20252;-73
2023/06/12 06:08:54;;;;;;;10.23;8.30;;;18.60;85.30;;;18.18;58.78;101208.13;5052962;28;20206;-73
2023/06/12 06:11:28;;;;;;;10.77;8.27;;;18.60;85.60;;;18.24;59.19;101218.16;5052993;28;20285;-73
2023/06/12 06:14:03;;;;;;;11.87;8.60;;;18.70;86.20;;;18.33;58.50;101222.38;5052630;28;20635;-73
2023/06/12 06:16:36;;;;;;;11.07;7.97;;;18.90;85.10;;;18.45;57.46;101218.09;5052607;28;20708;-73
2023/06/12 06:19:26;;;;;;;10.97;8.67;;;18.90;83.30;;;18.58;56.74;101222.78;5052826;28;20535;-73
2023/06/12 06:22:04;;;;;;;11.73;7.87;;;19.10;83.30;;;18.66;56.49;101225.34;5052460;28;20232;-73
2023/06/12 06:24:38;;;;;;;12.03;8.17;;;19.20;82.70;;;18.71;56.76;101225.56;5052523;28;20700;-73
2023/06/12 06:27:11;;;;;;;9.90;7.93;;;19.20;83.50;;;18.77;55.87;101230.16;5052498;28;20662;-73
2023/06/12 06:29:44;;;;;;;9.57;7.57;;;19.30;81.80;;;18.91;55.95;101237.31;5052677;28;20260;-73
2023/06/12 06:32:18;;;;;;;9.40;7.23;;;19.30;81.80;;;19.01;54.46;101231.50;5052391;28;20191;-72
2023/06/12 06:34:52;;;;;;;7.77;7.00;;;19.50;79.70;;;19.05;54.09;101235.50;5052739;28;20198;-72
2023/06/12 06:37:25;;;;;;;9.27;7.07;;;19.50;77.90;;;19.13;52.78;101240.75;5052818;28;20281;-72
2023/06/12 06:39:59;;;;;;;7.60;6.80;;;19.60;76.50;;;19.15;53.34;101244.94;5052715;28;20286;-72
2023/06/12 06:42:33;;;;;;;8.33;7.43;;;19.70;76.60;;;19.28;52.80;101246.84;5055209;28;20317;-71
2023/06/12 06:45:07;;;;;;;9.20;6.73;;;19.80;76.40;;;19.31;52.42;101249.16;5056207;28;20731;-73
2023/06/12 06:47:41;;;;;;;10.33;7.40;;;19.90;75.10;;;19.39;51.50;101235.38;5056552;28;20206;-73
2023/06/12 06:50:16;;;;;;;9.80;6.83;;;19.90;75.20;;;19.43;52.20;101247.53;5056425;28;20275;-73
2023/06/12 06:52:49;;;;;;;8.97;6.77;;;19.90;75.20;;;19.50;51.57;101236.69;5056025;28;20256;-73
2023/06/12 06:55:23;;;;;;;8.17;6.73;;;20.00;74.90;;;19.54;51.54;101238.81;5056411;28;20754;-73
2023/06/12 06:57:57;;;;;;;8.93;7.20;;;20.10;75.30;;;19.56;52.57;101236.69;5056321;28;20283;-74
2023/06/12 07:00:32;;;;;;;7.47;6.70;;;20.10;76.30;;;19.76;51.09;101246.78;5056067;28;20646;-73
2023/06/12 07:03:05;;;;;;;8.77;7.00;;;20.30;75.30;;;19.87;50.72;101251.56;5056175;28;20309;-74
2023/06/12 07:05:39;;;;;;;7.67;6.90;;;20.40;74.20;;;19.87;51.24;101248.84;5056176;28;20217;-74
2023/06/12 07:08:13;;;;;;;7.33;6.60;;;20.40;74.30;;;19.89;51.69;101246.78;5056152;28;20277;-73
2023/06/12 07:10:46;;;;;;;7.87;7.00;;;20.40;74.60;;;19.93;51.99;101248.03;5055983;28;20273;-73
2023/06/12 07:13:19;;;;;;;8.40;7.10;;;20.40;74.80;;;20.05;50.78;101251.78;5055568;28;20736;-73
2023/06/12 07:15:53;;;;;;;8.50;7.13;;;20.70;74.00;;;20.17;50.74;101245.47;5056009;28;20228;-73
2023/06/12 07:18:26;;;;;;;8.17;6.80;;;20.70;72.70;;;20.27;51.69;101255.13;5055917;28;20191;-73
2023/06/12 07:20:59;;;;;;;8.00;6.60;;;20.80;73.60;;;20.34;51.09;101254.09;5055882;28;20277;-74
2023/06/12 07:23:33;;;;;;;7.30;6.60;;;20.80;73.00;;;20.40;50.86;101244.25;5055796;28;20265;-73
2023/06/12 07:26:06;;;;;;;7.30;6.60;;;20.80;73.30;;;20.43;51.71;101252.81;5055721;28;20280;-73
2023/06/12 07:28:59;;;;;;;8.20;6.00;;;20.90;74.00;;;20.63;49.63;101250.03;5056349;28;20207;-73
2023/06/12 07:31:33;;;;;;;8.57;6.37;;;21.10;70.30;;;20.74;49.52;101250.22;5055301;28;20215;-73
2023/06/12 07:34:07;;;;;;;6.97;6.27;;;21.30;70.10;;;20.88;47.81;101253.72;5055514;28;20714;-74
2023/06/12 07:36:41;;;;;;;7.27;6.20;;;21.30;68.40;;;20.87;48.28;101246.59;5055308;28;20193;-74
2023/06/12 07:39:14;;;;;;;7.07;6.27;;;21.40;68.40;;;21.09;47.55;101244.44;5055576;28;20208;-74
2023/06/12 07:41:48;;;;;;;7.83;6.00;;;21.50;68.10;;;21.09;48.53;101252.59;5055510;28;20260;-74
2023/06/12 07:44:22;;;;;;;10.03;6.07;;;21.50;68.70;;;21.14;47.83;101247.34;5054984;28;20226;-74
2023/06/12 07:46:55;;;;;;;8.03;6.20;;;21.60;68.40;;;21.30;47.24;101244.16;5055444;28;20278;-73
2023/06/12 07:49:29;;;;;;;7.60;5.90;;;21.80;66.90;;;21.44;47.13;101243.00;5055032;28;20655;-73
2023/06/12 07:52:03;;;;;;;7.03;6.17;;;21.90;66.50;;;21.53;46.41;101241.69;5054930;28;20598;-73
2023/06/12 07:54:37;;;;;;;9.90;5.60;;;22.00;66.30;;;21.61;46.60;101243.31;5054189;28;20646;-74
2023/06/12 07:57:11;;;;;;;6.90;6.10;;;22.10;65.90;;;21.72;46.05;101248.88;5054983;28;20641;-74
2023/06/12 07:59:44;;;;;;;7.63;5.67;;;22.20;65.30;;;21.86;44.62;101252.34;5055441;28;20203;-74
2023/06/12 08:02:17;;;;;;;8.43;5.50;;;22.30;63.50;;;21.98;44.88;101249.78;5055016;28;20205;-74
2023/06/12 08:04:51;;;;;;;7.83;5.77;;;22.40;63.80;;;22.08;43.66;101250.09;5055037;28;20273;-74
2023/06/12 08:07:26;;;;;;;6.13;5.23;;;22.50;61.80;;;22.06;45.03;101249.47;5054764;28;20643;-73
2023/06/12 08:09:59;;;;;;;9.20;5.83;;;22.50;63.10;;;22.17;46.09;101248.75;5054830;28;20280;-73
2023/06/12 08:12:32;;;;;;;6.50;5.47;;;22.60;64.20;;;22.27;44.25;101243.63;5055190;28;20226;-74
2023/06/12 08:15:07;;;;;;;6.60;5.37;;;22.70;63.30;;;22.38;43.97;101244.78;5054818;28;20657;-72
2023/06/12 08:17:44;;;;;;;8.37;5.93;;;22.80;62.50;;;22.57;43.41;101250.00;5054775;28;20288;-73
2023/06/12 08:20:19;;;;;;;8.57;5.70;;;23.00;61.90;;;22.60;44.86;101251.47;5054582;28;20197;-73
2023/06/12 08:22:58;;;;;;;11.97;9.90;;;23.10;62.90;;;22.90;42.55;101255.13;5054277;28;20226;-72
2023/06/12 08:25:32;;;;;;;9.60;7.43;;;23.30;61.10;;;22.91;41.43;101245.06;5054639;28;20293;-72
2023/06/12 08:28:06;;;;;;;8.17;7.33;;;23.40;59.10;;;23.07;41.25;101255.34;5054230;28;20638;-72
2023/06/12 08:30:39;;;;;;;9.40;6.70;;;23.40;58.80;;;23.14;41.65;101256.09;5054477;28;20301;-72
2023/06/12 08:33:16;;;;;;;8.87;5.97;;;23.60;58.50;;;23.22;39.81;101253.03;5054451;28;20232;-72
2023/06/12 08:35:49;;;;;;;7.13;6.10;;;23.60;56.70;;;23.39;40.49;101254.03;5054467;28;20202;-72
2023/06/12 08:38:23;;;;;;;6.27;5.27;;;23.80;56.70;;;23.38;40.28;101257.03;5054379;28;20269;-72
2023/06/12 08:41:02;;;;;;;9.03;5.40;;;23.80;57.10;;;23.45;39.06;101249.59;5054030;28;20624;-72
2023/06/12 08:43:37;;;;;;;9.70;6.20;;;23.80;55.20;;;23.44;40.56;101253.38;5054157;28;20313;-73
2023/06/12 08:46:11;;;;;;;5.83;5.33;;;23.80;56.90;;;23.69;39.57;101252.19;5054386;28;20209;-72
2023/06/12 08:48:45;;;;;;;8.07;5.30;;;24.00;56.60;;;23.90;38.66;101250.78;5053932;28;20201;-72
2023/06/12 08:51:21;;;;;;;6.93;5.30;;;24.30;54.50;;;23.94;36.53;101245.69;5053980;28;20210;-72
2023/06/12 08:53:54;;;;;;;7.60;5.53;;;24.40;52.20;;;23.99;37.27;101243.91;5054048;28;20312;-72
2023/06/12 08:56:28;;;;;;;7.50;6.80;;;24.40;53.30;;;24.04;37.45;101245.94;5054005;28;20670;-72
2023/06/12 08:59:03;;;;;;;5.90;5.30;;;24.30;53.80;;;24.05;37.69;101244.84;5053699;28;20695;-72
2023/06/12 09:01:40;;;;;;;6.53;5.23;;;24.40;53.20;;;24.07;38.59;101243.56;5054037;28;20653;-72
2023/06/12 09:04:21;;;;;;;5.03;4.53;;;24.40;54.30;;;24.16;38.16;101255.00;5053578;28;20222;-72
2023/06/12 09:07:01;;;;;;;7.27;4.77;;;24.50;54.70;;;24.35;35.91;101248.31;5053788;28;20221;-72
2023/06/12 09:09:46;;;;;;;6.33;4.53;;;24.70;51.50;;;24.35;36.96;101248.31;5053795;28;20200;-72
2023/06/12 09:12:19;;;;;;;5.50;5.00;;;24.70;52.30;;;24.46;35.42;101252.97;5053651;28;20217;-72
2023/06/12 09:14:53;;;;;;;8.00;7.20;;;24.70;50.30;;;24.49;36.39;101255.22;5053761;28;20269;-72
2023/06/12 09:17:33;;;;;;;5.37;4.60;;;24.80;51.10;;;24.64;34.91;101252.00;5053688;28;20191;-72
2023/06/12 09:20:15;;;;;;;6.70;4.90;;;25.00;49.80;;;24.74;32.90;101246.75;5053666;28;20186;-72
2023/06/12 09:23:06;;;;;;;5.27;4.60;;;25.10;47.60;;;24.83;33.37;101245.31;5053579;28;20320;-71
2023/06/12 09:25:41;;;;;;;6.60;5.20;;;25.10;48.20;;;24.81;34.39;101246.59;5053527;28;20216;-72
2023/06/12 09:28:36;;;;;;;7.63;5.57;;;25.10;48.60;;;24.84;33.63;101244.25;5053524;28;20186;-72
2023/06/12 09:31:15;;;;;;;6.60;5.00;;;25.10;48.20;;;24.94;34.70;101243.63;5053454;28;20241;-72
2023/06/12 09:33:50;;;;;;;5.97;5.37;;;25.20;49.20;;;24.96;35.49;101239.59;5053423;28;20620;-72
2023/06/12 09:36:31;;;;;;;7.57;4.80;;;25.30;50.80;;;25.11;34.42;101242.63;5053388;28;20263;-73
2023/06/12 09:39:07;;;;;;;10.02;5.10;;;25.40;49.20;;;25.11;33.48;101247.25;5053281;28;20284;-72
2023/06/12 09:41:50;;;;;;;4.82;4.43;;;25.40;47.40;;;25.16;33.43;101244.63;5053017;28;20217;-72
2023/06/12 09:44:31;;;;;;;6.70;4.90;;;25.40;47.60;;;25.24;32.91;101236.84;5053042;28;20285;-72
2023/06/12 09:47:09;;;;;;;4.93;4.30;;;25.50;46.60;;;25.39;32.56;101241.78;5053452;28;20210;-72
2023/06/12 09:49:46;;;;;;;6.43;4.70;;;25.60;45.90;;;25.49;29.99;101254.84;5052762;28;20543;-70
2023/06/12 09:52:21;;;;;;;10.82;6.70;;;25.80;43.50;;;25.49;30.88;101247.47;5052977;28;20206;-70
2023/06/12 09:54:55;;;;;;;6.07;4.60;;;25.80;43.80;;;25.66;27.40;101245.59;5053113;28;20226;-72
2023/06/12 09:57:29;;;;;;;5.20;4.10;;;25.90;39.60;;;25.72;26.78;101241.88;5053141;28;20193;-70
2023/06/12 10:00:07;;;;;;;5.35;4.65;;;26.00;39.10;;;25.78;27.68;101239.22;5053072;28;20190;-70
2023/06/12 10:02:47;;;;;;;8.27;5.07;;;26.00;40.20;;;26.00;27.46;101240.97;5052959;28;20230;-70
2023/06/12 10:05:25;;;;;;;5.28;4.70;;;26.30;39.50;;;26.13;26.91;101242.56;5052714;28;20617;-70
2023/06/12 10:08:03;;;;;;;5.72;4.30;;;26.40;37.70;;;26.18;25.29;101248.97;5052951;28;20285;-70
2023/06/12 10:10:40;;;;;;;7.85;4.78;;;26.40;36.30;;;26.22;25.31;101243.81;5053001;28;20190;-70
2023/06/12 10:13:15;;;;;;;7.38;4.22;;;26.40;36.10;;;26.41;24.58;101241.63;5052769;28;20236;-70
2023/06/12 10:15:50;;;;;;;5.05;4.53;;;26.60;36.10;;;26.44;25.73;101246.63;5052893;28;20273;-70
2023/06/12 10:18:26;;;;;;;7.75;6.35;;;26.60;37.30;;;26.49;26.67;101250.25;5056990;28;20248;-72
2023/06/12 10:21:01;;;;;;;10.93;4.40;;;26.70;38.20;;;26.52;25.18;101244.25;5056624;28;20193;-72
2023/06/12 10:23:37;;;;;;;6.28;4.68;;;26.70;35.90;;;26.60;24.44;101235.59;5056907;28;20316;-70
2023/06/12 10:26:11;;;;;;;4.55;4.13;;;26.80;35.70;;;26.58;24.19;101240.50;5056474;28;20233;-70
2023/06/12 10:28:45;;;;;;;6.28;3.97;;;26.90;35.80;;;26.63;24.39;101247.97;5056800;28;20297;-70
2023/06/12 10:31:23;;;;;;;4.65;3.70;;;26.80;35.30;;;26.76;25.20;101247.59;5056420;28;20195;-70
2023/06/12 10:34:10;;;;;;;4.63;3.58;;;26.90;35.90;;;26.80;24.74;101245.19;5056983;28;20222;-70
2023/06/12 10:36:47;;;;;;;4.25;3.85;;;27.00;36.70;;;26.91;26.12;101236.84;5056930;28;20194;-70
2023/06/12 10:39:24;;;;;;;5.22;3.90;;;27.00;36.90;;;27.02;26.46;101240.56;5056596;28;20240;-70
2023/06/12 10:42:00;;;;;;;6.93;3.95;;;27.10;37.40;;;27.15;24.78;101230.00;5056629;28;20653;-70